METAR Data
IDs: Format: Raw Decoded Include TAF

Data at: 0842 UTC 20 Sep 2018

KCSQ 200835Z AUTO 18008KT 10SM CLR 23/20 A2988 RMK AO2
KCSQ 200815Z AUTO 17008KT 10SM CLR 23/20 A2988 RMK AO2
KCSQ 200755Z AUTO 18007KT 10SM FEW060 23/20 A2989 RMK AO2
KCSQ 200735Z AUTO 17006KT 10SM SCT060 24/20 A2989 RMK AO2
KCSQ 200715Z AUTO 17006KT 10SM CLR 24/20 A2989 RMK AO2
KCSQ 200655Z AUTO 17007KT 10SM FEW055 24/20 A2989 RMK AO2
KCSQ 200635Z AUTO 17008KT 10SM FEW055 24/20 A2989 RMK AO2
KCSQ 200615Z AUTO 17007KT 10SM FEW065 23/20 A2990 RMK AO2
KCSQ 200555Z AUTO 17006KT 10SM SCT065 23/21 A2990 RMK AO2
KCSQ 200535Z AUTO 17005KT 10SM CLR 24/20 A2990 RMK AO2
KCSQ 200515Z AUTO 17006KT 10SM CLR 24/21 A2990 RMK AO2
KCSQ 200455Z AUTO 18008KT 10SM CLR 24/21 A2990 RMK AO2
KCSQ 200435Z AUTO 16006KT 10SM CLR 24/21 A2990 RMK AO2
KCSQ 200415Z AUTO 17008KT 10SM CLR 25/21 A2989 RMK AO2
KCSQ 200355Z AUTO 18007KT 10SM CLR 25/21 A2989 RMK AO2
KCSQ 200335Z AUTO 18007KT 10SM CLR 25/21 A2988 RMK AO2
KCSQ 200315Z AUTO 18009KT 10SM CLR 26/21 A2989 RMK AO2
KCSQ 200255Z AUTO 17008KT 10SM CLR 26/21 A2989 RMK AO2
KCSQ 200235Z AUTO 16007KT 10SM CLR 26/21 A2988 RMK AO2
KCSQ 200215Z AUTO 16007KT 10SM CLR 26/21 A2988 RMK AO2
KCSQ 200155Z AUTO 16008KT 10SM CLR 27/21 A2988 RMK AO2
KCSQ 200135Z AUTO 16007KT 10SM FEW070 27/21 A2987 RMK AO2
KCSQ 192155Z AUTO 13011G18KT 10SM SCT060 31/23 A2986 RMK AO2
KCSQ 192135Z AUTO 12010KT 10SM FEW060 FEW080 31/24 A2986 RMK AO2
KCSQ 192115Z AUTO 10010KT 10SM SCT060 SCT070 BKN085 30/24 A2987 RMK AO2
KCSQ 192055Z AUTO 11009KT 10SM CLR 30/24 A2988 RMK AO2
KCSQ 192035Z AUTO 08009KT 10SM FEW070 FEW080 30/24 A2989 RMK AO2
KCSQ 192015Z AUTO 11007G15KT 080V140 10SM CLR 29/23 A2990 RMK AO2
KCSQ 191955Z AUTO 11009KT 10SM CLR 29/23 A2991 RMK AO2
KCSQ 191935Z AUTO 07010KT 10SM FEW015 SCT080 27/22 A2992 RMK AO2
KCSQ 191915Z AUTO 11009G15KT 10SM SCT014 26/22 A2993 RMK AO2
KCSQ 191855Z AUTO 11009KT 10SM FEW011 26/22 A2994 RMK AO2
KCSQ 191835Z AUTO 08009KT 9SM SCT006 25/22 A2995 RMK AO2
KCSQ 191815Z AUTO 09008G14KT 9SM BKN006 24/22 A2996 RMK AO2
KCSQ 191755Z AUTO 05011KT 9SM BKN006 25/22 A2997 RMK AO2
KCSQ 191735Z AUTO 08007G15KT 9SM BKN007 BKN013 23/22 A2997 RMK AO2
KCSQ 191715Z AUTO 06009KT 9SM BKN008 OVC013 23/21 A2998 RMK AO2
KCSQ 191655Z AUTO 07007G13KT 9SM BKN008 OVC014 23/21 A2998 RMK AO2
KCSQ 191635Z AUTO 06009KT 9SM OVC006 23/21 A2998 RMK AO2
KCSQ 191615Z AUTO 06009KT 6SM BR OVC004 23/21 A2998 RMK AO2
KCSQ 191555Z AUTO 05008KT 8SM BKN005 OVC009 23/22 A2998 RMK AO2
KCSQ 191535Z AUTO 06008KT 7SM BKN006 BKN060 23/22 A2997 RMK AO2
KCSQ 191515Z AUTO 14007KT 7SM BKN004 BKN060 23/23 A2996 RMK AO2
KCSQ 191455Z AUTO 14006KT 4SM BR OVC003 22/22 A2996 RMK AO2
KCSQ 191435Z AUTO 14006KT 1 3/4SM BR OVC003 22/21 A2995 RMK AO2
KCSQ 191415Z AUTO 14007KT 1/4SM FG OVC002 21/21 A2995 RMK AO2
KCSQ 191355Z AUTO 15008KT M1/4SM FG OVC002 21/21 A2995 RMK AO2
KCSQ 191335Z AUTO 12006KT M1/4SM FG OVC002 21/21 A2996 RMK AO2
KCSQ 191315Z AUTO 13006KT M1/4SM FG OVC002 21/21 A2995 RMK AO2
KCSQ 191255Z AUTO 13007KT M1/4SM FG OVC002 20/20 A2995 RMK AO2
KCSQ 191235Z AUTO 13007KT M1/4SM FG OVC002 20/20 A2995 RMK AO2
KCSQ 191215Z AUTO 13008KT M1/4SM FG OVC002 20/20 A2995 RMK AO2
KCSQ 191155Z AUTO 14006KT M1/4SM FG OVC002 20/20 A2995 RMK AO2
KCSQ 191135Z AUTO 13008G14KT M1/4SM FG OVC002 20/20 A2994 RMK AO2
KCSQ 191115Z AUTO 12010KT M1/4SM FG OVC002 20/20 A2994 RMK AO2
KCSQ 191055Z AUTO 13006KT M1/4SM FG OVC002 20/20 A2994 RMK AO2
KCSQ 191035Z AUTO 11007KT 1/4SM FG OVC002 20/20 A2993 RMK AO2
KCSQ 191015Z AUTO 11007KT 1/4SM FG OVC002 20/20 A2993 RMK AO2
KCSQ 190955Z AUTO 10007KT 1/4SM FG OVC002 20/20 A2993 RMK AO2
KCSQ 190935Z AUTO 11008KT 1/4SM FG OVC002 20/19 A2992 RMK AO2
KCSQ 190915Z AUTO 09008KT 1/4SM FG OVC002 19/19 A2993 RMK AO2
KCSQ 190855Z AUTO 07010KT M1/4SM FG OVC002 19/19 A2993 RMK AO2
KCSQ 190835Z AUTO 06009KT M1/4SM FG OVC002 19/19 A2994 RMK AO2
KCSQ 190815Z AUTO 06008KT M1/4SM FG OVC002 19/19 A2994 RMK AO2
KCSQ 190755Z AUTO 08006KT 1/4SM FG OVC002 19/19 A2994 RMK AO2
KCSQ 190735Z AUTO 08006KT 1/4SM FG OVC002 19/19 A2994 RMK AO2
KCSQ 190715Z AUTO 03007KT 1/2SM FG OVC002 19/19 A2995 RMK AO2
KCSQ 190655Z AUTO 09004KT 2SM BR OVC002 19/19 A2994 RMK AO2
KCSQ 190635Z AUTO 08004KT 2 1/2SM BR OVC002 19/19 A2995 RMK AO2
KCSQ 190615Z AUTO 10005KT 2SM BR OVC002 19/19 A2995 RMK AO2
KCSQ 190555Z AUTO 09006KT 3SM BR BKN003 19/19 A2995 RMK AO2
KCSQ 190535Z AUTO 08005KT 3SM BR FEW095 19/19 A2995 RMK AO2
KCSQ 190515Z AUTO 07004KT 4SM BR SCT095 19/19 A2995 RMK AO2
KCSQ 190455Z AUTO 07004KT 5SM BR BKN095 19/19 A2995 RMK AO2
KCSQ 190435Z AUTO 07005KT 5SM BR SCT090 19/19 A2995 RMK AO2
KCSQ 190415Z AUTO 08005KT 7SM SCT095 19/19 A2994 RMK AO2
KCSQ 190355Z AUTO 08005KT 9SM SCT095 19/18 A2995 RMK AO2
KCSQ 190335Z AUTO 08005KT 10SM SCT095 19/18 A2995 RMK AO2
KCSQ 190315Z AUTO 09004KT 7SM SCT095 18/18 A2994 RMK AO2
KCSQ 190255Z AUTO 11004KT 10SM CLR 19/18 A2994 RMK AO2
KCSQ 190235Z AUTO 10005KT 10SM CLR 19/18 A2994 RMK AO2
KCSQ 190215Z AUTO 08004KT 10SM CLR 19/18 A2993 RMK AO2
KCSQ 190155Z AUTO 10003KT 10SM CLR 19/18 A2994 RMK AO2
KCSQ 190135Z AUTO 11005KT 10SM CLR 19/18 A2991 RMK AO2
KCSQ 190115Z AUTO 16005KT 10SM CLR 20/19 A2990 RMK AO2
KCSQ 190055Z AUTO 16006KT 10SM CLR 19/18 A2990 RMK AO2 P0005
KCSQ 190035Z AUTO 09006KT 10SM CLR 19/18 A2990 RMK AO2
KCSQ 190015Z AUTO 17015G25KT 8SM -RA FEW029 FEW036 SCT041 19/18 A2990 RMK AO2
KCSQ 182355Z AUTO 14015KT 4SM -RA BKN038 BKN046 OVC060 19/18 A2992 RMK AO2 P0005
KCSQ 182335Z AUTO 11008KT 6SM -RA SCT041 BKN049 OVC070 19/18 A2995 RMK AO2
KCSQ 182315Z AUTO 07006G11KT 10SM FEW060 SCT070 BKN120 19/18 A2996 RMK AO2
KCSQ 182255Z AUTO 08009KT 10SM FEW010 19/17 A2996 RMK AO2
KCSQ 182235Z AUTO 08011KT 10SM BKN010 19/17 A2997 RMK AO2
KCSQ 182215Z AUTO 08012G18KT 10SM BKN010 BKN075 19/17 A2997 RMK AO2
KCSQ 182155Z AUTO 07014G19KT 10SM BKN012 19/17 A2996 RMK AO2
KCSQ 182135Z AUTO 06011G20KT 10SM OVC011 20/17 A2996 RMK AO2
KCSQ 182115Z AUTO 06013KT 10SM OVC011 20/18 A2998 RMK AO2
KCSQ 182055Z AUTO 02013G19KT 10SM BKN011 BKN120 19/17 A3001 RMK AO2 P0001